METAR Data
IDs: Format: Raw Decoded Include TAF

Data at: 0158 UTC 01 Nov 2020

PAIN 010156Z AUTO 00000KT 5SM -SN BR OVC040 M15/M17 A2985 RMK AO2 SLP177 P0000 T11501172 FZRANO